^^
Atglen Borough Weather Station Historical Data
 
Daily Summary for May 21, 2018 Units:  English    Metric   Both
Daily Weekly Monthly Yearly Custom
  Current: High: Low: Average:
Temperature: 70.3 °F 77.4 °F 54.9 °F 67 °F
Dew Point: 56.7 °F 60.4 °F 53.2 °F 56.5 °F
Humidity: 62% 97% 47% 72%
Wind Speed: 0.0mph 8.9mph 0.0mph 1.4mph
Wind Gust: 0.0mph 11.0mph - -
WindCalm - - SSW
Pressure: 30.12 in 30.21 in 30.06 in -
Precipitation: 0.00 in      
Historical Graphs
 
 
Tabular Data for May 21, 2018
Time Temperature Dew Point Pressure Wind Wind Speed Wind Gust Humidity Rainfall Rate (Hourly)
00:04 63.1 °F 60.4 °F 30.06 in Calm     91% 0.00 in
00:09 63.0 °F 60.3 °F 30.06 in Calm     91% 0.00 in
00:14 63.0 °F 60.3 °F 30.06 in Calm     91% 0.00 in
00:19 62.8 °F 60.4 °F 30.07 in Calm     92% 0.00 in
00:24 62.8 °F 60.4 °F 30.07 in Calm     92% 0.00 in
00:29 62.8 °F 60.4 °F 30.07 in Calm     92% 0.00 in
00:34 62.8 °F 60.4 °F 30.07 in NNW 0.9 mph 2.0 mph 92% 0.00 in
00:39 62.6 °F 60.3 °F 30.07 in Calm   1.0 mph 92% 0.00 in
00:44 62.4 °F 60.4 °F 30.07 in Calm   1.0 mph 93% 0.00 in
00:49 62.2 °F 60.3 °F 30.07 in Calm     93% 0.00 in
00:54 62.2 °F 59.9 °F 30.08 in Calm     92% 0.00 in
01:00 62.1 °F 59.7 °F 30.08 in Calm     92% 0.00 in
01:05 61.9 °F 59.5 °F 30.07 in Calm     92% 0.00 in
01:10 61.9 °F 59.5 °F 30.07 in Calm     92% 0.00 in
01:15 61.5 °F 59.2 °F 30.07 in Calm   1.0 mph 92% 0.00 in
01:20 61.5 °F 59.2 °F 30.07 in Calm     92% 0.00 in
01:25 61.3 °F 59.0 °F 30.07 in Calm     92% 0.00 in
01:30 61.3 °F 59.4 °F 30.07 in Calm     93% 0.00 in
01:35 61.2 °F 59.2 °F 30.07 in Calm     93% 0.00 in
01:40 61.0 °F 58.6 °F 30.08 in Calm     92% 0.00 in
01:45 60.8 °F 58.5 °F 30.08 in Calm     92% 0.00 in
01:50 60.6 °F 58.3 °F 30.08 in Calm     92% 0.00 in
01:55 60.4 °F 58.5 °F 30.08 in Calm   1.0 mph 93% 0.00 in
02:00 60.4 °F 58.5 °F 30.08 in Calm     93% 0.00 in
02:05 60.3 °F 58.3 °F 30.09 in Calm     93% 0.00 in
02:10 60.3 °F 58.3 °F 30.09 in Calm     93% 0.00 in
02:15 60.1 °F 58.1 °F 30.09 in Calm     93% 0.00 in
02:20 59.7 °F 57.7 °F 30.09 in Calm     93% 0.00 in
02:25 59.7 °F 57.7 °F 30.09 in Calm     93% 0.00 in
02:30 59.5 °F 57.6 °F 30.09 in Calm     93% 0.00 in
02:35 59.5 °F 57.6 °F 30.09 in Calm     93% 0.00 in
02:40 59.4 °F 57.4 °F 30.09 in Calm     93% 0.00 in
02:45 59.4 °F 57.4 °F 30.09 in Calm     93% 0.00 in
02:50 59.2 °F 57.2 °F 30.09 in Calm     93% 0.00 in
02:55 59.0 °F 57.0 °F 30.10 in Calm     93% 0.00 in
03:00 58.8 °F 56.8 °F 30.09 in NNW 2.0 mph 3.0 mph 93% 0.00 in
03:05 58.8 °F 56.8 °F 30.10 in NNW 0.9 mph 1.0 mph 93% 0.00 in
03:10 58.8 °F 57.0 °F 30.10 in NNW 0.9 mph 1.0 mph 94% 0.00 in
03:16 58.6 °F 56.8 °F 30.10 in Calm     94% 0.00 in
03:21 58.6 °F 56.8 °F 30.10 in Calm     94% 0.00 in
03:26 58.5 °F 56.7 °F 30.10 in Calm     94% 0.00 in
03:31 58.5 °F 56.7 °F 30.11 in Calm     94% 0.00 in
03:36 58.5 °F 56.7 °F 30.11 in Calm     94% 0.00 in
03:41 58.3 °F 56.5 °F 30.11 in Calm     94% 0.00 in
03:46 58.3 °F 56.5 °F 30.11 in Calm     94% 0.00 in
03:51 58.1 °F 56.3 °F 30.11 in Calm     94% 0.00 in
03:56 57.9 °F 56.1 °F 30.11 in Calm     94% 0.00 in
04:01 57.7 °F 55.9 °F 30.11 in Calm     94% 0.00 in
04:06 57.7 °F 55.9 °F 30.11 in Calm     94% 0.00 in
04:11 57.6 °F 55.8 °F 30.11 in Calm     94% 0.00 in
04:16 57.4 °F 55.6 °F 30.12 in Calm     94% 0.00 in
04:21 57.4 °F 55.6 °F 30.12 in Calm     94% 0.00 in
04:26 57.2 °F 55.4 °F 30.12 in Calm     94% 0.00 in
04:31 57.0 °F 55.2 °F 30.12 in Calm     94% 0.00 in
04:36 56.8 °F 55.2 °F 30.12 in Calm     94% 0.00 in
04:41 56.8 °F 55.2 °F 30.12 in Calm     94% 0.00 in
04:46 56.7 °F 55.0 °F 30.12 in Calm     94% 0.00 in
04:51 56.5 °F 54.9 °F 30.13 in Calm     94% 0.00 in
04:56 56.5 °F 54.9 °F 30.13 in Calm     94% 0.00 in
05:01 56.3 °F 54.7 °F 30.13 in Calm     94% 0.00 in
05:06 56.1 °F 54.5 °F 30.13 in Calm     94% 0.00 in
05:11 56.1 °F 54.5 °F 30.13 in Calm     94% 0.00 in
05:17 55.9 °F 54.3 °F 30.14 in Calm     94% 0.00 in
05:22 55.9 °F 54.3 °F 30.14 in Calm     94% 0.00 in
05:27 55.8 °F 54.1 °F 30.14 in Calm     94% 0.00 in
05:32 55.8 °F 54.1 °F 30.14 in Calm     94% 0.00 in
05:37 55.6 °F 54.0 °F 30.14 in Calm     94% 0.00 in
05:42 55.4 °F 53.8 °F 30.14 in Calm     94% 0.00 in
05:47 55.2 °F 53.6 °F 30.14 in Calm     94% 0.00 in
05:52 55.2 °F 53.6 °F 30.15 in Calm     94% 0.00 in
05:57 55.0 °F 53.4 °F 30.15 in Calm     94% 0.00 in
06:02 55.0 °F 53.4 °F 30.15 in Calm     94% 0.00 in
06:07 55.0 °F 53.4 °F 30.15 in Calm     94% 0.00 in
06:12 54.9 °F 53.2 °F 30.15 in Calm     94% 0.00 in
06:17 54.9 °F 53.2 °F 30.16 in Calm     94% 0.00 in
06:22 54.9 °F 53.2 °F 30.16 in Calm     94% 0.00 in
06:27 54.9 °F 53.2 °F 30.16 in Calm     94% 0.00 in
06:32 55.0 °F 53.6 °F 30.16 in Calm     95% 0.00 in
06:37 55.0 °F 53.6 °F 30.16 in Calm     95% 0.00 in
06:42 55.0 °F 53.6 °F 30.17 in Calm     95% 0.00 in
06:47 55.0 °F 53.6 °F 30.17 in Calm     95% 0.00 in
06:52 55.0 °F 53.6 °F 30.17 in Calm     95% 0.00 in
06:57 55.2 °F 53.8 °F 30.17 in Calm     95% 0.00 in
07:02 55.6 °F 54.5 °F 30.17 in Calm     96% 0.00 in
07:08 55.8 °F 54.7 °F 30.17 in Calm     96% 0.00 in
07:13 55.9 °F 54.9 °F 30.17 in Calm     96% 0.00 in
07:18 56.1 °F 55.0 °F 30.17 in Calm     96% 0.00 in
07:23 56.5 °F 55.4 °F 30.17 in Calm     96% 0.00 in
07:28 56.8 °F 55.8 °F 30.17 in Calm     96% 0.00 in
07:33 57.6 °F 56.7 °F 30.17 in Calm     97% 0.00 in
07:38 58.1 °F 57.2 °F 30.17 in Calm   2.0 mph 97% 0.00 in
07:43 58.6 °F 57.7 °F 30.18 in NNW 0.9 mph 3.0 mph 97% 0.00 in
07:48 59.4 °F 58.5 °F 30.18 in Calm   2.0 mph 97% 0.00 in
07:53 60.3 °F 59.2 °F 30.18 in NNW 0.9 mph 2.0 mph 96% 0.00 in
07:58 60.6 °F 58.6 °F 30.18 in NNW 0.9 mph 2.0 mph 93% 0.00 in
08:03 61.5 °F 58.6 °F 30.18 in North 0.9 mph 3.0 mph 90% 0.00 in
08:08 62.2 °F 58.6 °F 30.18 in North 2.9 mph 9.0 mph 88% 0.00 in
08:13 62.8 °F 57.9 °F 30.18 in North 2.0 mph 4.0 mph 84% 0.00 in
08:18 63.3 °F 58.1 °F 30.18 in NNE 0.9 mph 8.0 mph 83% 0.00 in
08:23 63.9 °F 57.2 °F 30.18 in NNE 0.9 mph 5.0 mph 79% 0.00 in
08:28 64.4 °F 58.1 °F 30.19 in NNE 2.9 mph 3.0 mph 80% 0.00 in
08:33 65.1 °F 58.1 °F 30.19 in North 4.9 mph 9.0 mph 78% 0.00 in
08:38 65.5 °F 57.4 °F 30.19 in NE 2.9 mph 7.0 mph 75% 0.00 in
08:43 65.1 °F 56.7 °F 30.19 in North 2.9 mph 9.0 mph 74% 0.00 in
08:48 64.9 °F 56.1 °F 30.19 in NNW 2.0 mph 6.0 mph 73% 0.00 in
08:53 65.1 °F 56.3 °F 30.19 in North 4.9 mph 8.0 mph 73% 0.00 in
08:59 65.1 °F 55.4 °F 30.19 in North 2.0 mph 4.0 mph 71% 0.00 in
09:03 65.7 °F 55.9 °F 30.19 in North 0.9 mph 5.0 mph 71% 0.00 in
09:09 65.8 °F 56.1 °F 30.19 in North 4.9 mph 5.0 mph 71% 0.00 in
09:14 65.8 °F 56.1 °F 30.19 in NNE 8.1 mph 8.1 mph 71% 0.00 in
09:19 66.2 °F 56.1 °F 30.19 in NE 6.0 mph 8.0 mph 70% 0.00 in
09:24 66.6 °F 55.6 °F 30.20 in NE 2.0 mph 8.0 mph 68% 0.00 in
09:29 66.9 °F 55.9 °F 30.20 in NNE 2.9 mph 6.0 mph 68% 0.00 in
09:34 66.9 °F 55.6 °F 30.20 in NNW 4.9 mph 9.0 mph 67% 0.00 in
09:39 67.3 °F 55.0 °F 30.20 in North 4.0 mph 6.0 mph 65% 0.00 in
09:44 67.6 °F 56.3 °F 30.20 in NE 2.9 mph 10.0 mph 67% 0.00 in
09:49 67.6 °F 55.4 °F 30.20 in NE 6.0 mph 9.0 mph 65% 0.00 in
09:54 67.8 °F 55.6 °F 30.20 in ENE 2.9 mph 5.0 mph 65% 0.00 in
09:59 68.4 °F 56.5 °F 30.20 in ENE 8.1 mph 8.1 mph 66% 0.00 in
10:04 68.5 °F 56.3 °F 30.20 in NE 2.9 mph 4.0 mph 65% 0.00 in
10:09 68.9 °F 55.8 °F 30.20 in NNW 0.9 mph 11.0 mph 63% 0.00 in
10:14 68.7 °F 55.6 °F 30.21 in Calm   3.0 mph 63% 0.00 in
10:19 68.7 °F 56.8 °F 30.21 in North 2.0 mph 6.0 mph 66% 0.00 in
10:24 68.9 °F 58.6 °F 30.21 in North 0.9 mph 4.0 mph 70% 0.00 in
10:29 68.9 °F 56.3 °F 30.21 in NW 6.0 mph 10.0 mph 64% 0.00 in
10:34 69.3 °F 56.5 °F 30.21 in North 2.9 mph 6.0 mph 64% 0.00 in
10:39 69.3 °F 54.9 °F 30.21 in NNW 8.1 mph 8.1 mph 60% 0.00 in
10:44 69.6 °F 55.9 °F 30.20 in North 4.0 mph 5.0 mph 62% 0.00 in
10:49 69.6 °F 55.0 °F 30.20 in North 2.0 mph 8.0 mph 60% 0.00 in
10:54 69.6 °F 55.0 °F 30.20 in North 4.9 mph 5.0 mph 60% 0.00 in
10:59 69.6 °F 55.0 °F 30.20 in North 4.0 mph 6.0 mph 60% 0.00 in
11:04 69.6 °F 56.5 °F 30.20 in West 2.9 mph 8.0 mph 63% 0.00 in
11:09 70.0 °F 56.8 °F 30.20 in Calm   2.0 mph 63% 0.00 in
11:14 70.5 °F 57.4 °F 30.20 in North 2.0 mph 4.0 mph 63% 0.00 in
11:19 71.2 °F 57.9 °F 30.20 in NW 8.1 mph 9.0 mph 63% 0.00 in
11:24 71.1 °F 55.6 °F 30.20 in North 0.9 mph 8.0 mph 58% 0.00 in
11:29 70.9 °F 56.3 °F 30.20 in NNE 2.9 mph 9.0 mph 60% 0.00 in
11:34 70.3 °F 56.3 °F 30.20 in NNE 0.9 mph 4.0 mph 61% 0.00 in
11:39 70.9 °F 58.1 °F 30.20 in NNW 4.0 mph 8.0 mph 64% 0.00 in
11:44 71.2 °F 56.7 °F 30.20 in West 4.0 mph 5.0 mph 60% 0.00 in
11:49 71.2 °F 56.7 °F 30.20 in North 8.9 mph 11.0 mph 60% 0.00 in
11:54 70.9 °F 55.4 °F 30.19 in North 2.0 mph 2.0 mph 58% 0.00 in
11:59 71.2 °F 57.0 °F 30.19 in North 2.9 mph 6.0 mph 61% 0.00 in
12:04 71.2 °F 56.1 °F 30.19 in North 2.0 mph 5.0 mph 59% 0.00 in
12:09 71.8 °F 58.1 °F 30.19 in North 0.9 mph 5.0 mph 62% 0.00 in
12:14 72.1 °F 57.0 °F 30.19 in North 2.9 mph 5.0 mph 59% 0.00 in
12:19 72.1 °F 58.8 °F 30.19 in North 2.9 mph 6.0 mph 63% 0.00 in
12:24 72.7 °F 58.5 °F 30.19 in Calm   4.0 mph 61% 0.00 in
12:29 73.2 °F 57.0 °F 30.19 in North 4.9 mph 9.0 mph 57% 0.00 in
12:34 72.9 °F 56.7 °F 30.19 in North 0.9 mph 4.0 mph 57% 0.00 in
12:39 72.7 °F 57.9 °F 30.18 in NW 2.0 mph 8.0 mph 60% 0.00 in
12:44 73.2 °F 57.6 °F 30.18 in NNW 6.0 mph 8.0 mph 58% 0.00 in
12:49 72.9 °F 56.7 °F 30.18 in Calm   4.0 mph 57% 0.00 in
12:54 72.7 °F 57.0 °F 30.18 in Calm   2.0 mph 58% 0.00 in
12:59 73.4 °F 58.6 °F 30.18 in NW 0.9 mph 6.0 mph 60% 0.00 in
13:04 74.1 °F 59.4 °F 30.17 in North 4.0 mph 4.0 mph 60% 0.00 in
13:09 74.5 °F 60.1 °F 30.17 in North 4.0 mph 7.0 mph 61% 0.00 in
13:14 73.8 °F 56.7 °F 30.17 in North 2.0 mph 6.0 mph 55% 0.00 in
13:19 73.4 °F 55.8 °F 30.17 in North 2.9 mph 4.0 mph 54% 0.00 in
13:24 73.8 °F 57.0 °F 30.17 in North 4.0 mph 6.0 mph 56% 0.00 in
13:29 74.1 °F 57.9 °F 30.17 in North 4.0 mph 8.0 mph 57% 0.00 in
13:34 74.1 °F 56.8 °F 30.17 in North 4.0 mph 5.0 mph 55% 0.00 in
13:39 74.3 °F 56.7 °F 30.16 in WSW 0.9 mph 5.0 mph 54% 0.00 in
13:45 74.8 °F 58.6 °F 30.16 in North 2.0 mph 4.0 mph 57% 0.00 in
13:50 74.5 °F 58.8 °F 30.16 in WNW 4.0 mph 6.0 mph 58% 0.00 in
13:55 74.1 °F 55.4 °F 30.16 in WNW 2.0 mph 8.0 mph 52% 0.00 in
14:00 74.1 °F 57.4 °F 30.16 in NNW 4.0 mph 4.0 mph 56% 0.00 in
14:05 74.3 °F 56.1 °F 30.16 in Calm   2.0 mph 53% 0.00 in
14:10 74.7 °F 57.4 °F 30.16 in North 0.9 mph 3.0 mph 55% 0.00 in
14:15 74.8 °F 57.0 °F 30.16 in North 2.0 mph 8.0 mph 54% 0.00 in
14:20 75.2 °F 56.8 °F 30.15 in North 2.9 mph 4.0 mph 53% 0.00 in
14:25 75.2 °F 54.7 °F 30.15 in Calm   3.0 mph 49% 0.00 in
14:30 75.2 °F 55.2 °F 30.15 in North 2.0 mph 5.0 mph 50% 0.00 in
14:35 75.4 °F 56.5 °F 30.15 in WNW 4.0 mph 5.0 mph 52% 0.00 in
14:40 75.4 °F 57.6 °F 30.15 in NNW 6.0 mph 6.0 mph 54% 0.00 in
14:45 75.7 °F 57.9 °F 30.15 in NW 2.0 mph 5.0 mph 54% 0.00 in
14:50 75.7 °F 57.9 °F 30.15 in North 4.0 mph 8.0 mph 54% 0.00 in
14:55 75.6 °F 56.7 °F 30.15 in WNW 2.9 mph 5.0 mph 52% 0.00 in
15:00 75.7 °F 56.8 °F 30.14 in WNW 2.0 mph 3.0 mph 52% 0.00 in
15:05 75.6 °F 58.8 °F 30.14 in West 6.0 mph 6.0 mph 56% 0.00 in
15:10 76.6 °F 59.7 °F 30.14 in Calm   5.0 mph 56% 0.00 in
15:15 76.5 °F 57.6 °F 30.14 in NE 2.0 mph 4.0 mph 52% 0.00 in
15:20 76.5 °F 57.6 °F 30.14 in NNE 2.9 mph 8.0 mph 52% 0.00 in
15:25 76.3 °F 55.2 °F 30.14 in NNE 2.0 mph 5.0 mph 48% 0.00 in
15:30 76.3 °F 56.8 °F 30.14 in West 2.9 mph 7.0 mph 51% 0.00 in
15:35 76.5 °F 57.6 °F 30.14 in West 0.9 mph 4.0 mph 52% 0.00 in
15:40 76.3 °F 56.3 °F 30.13 in SSW 4.0 mph 6.0 mph 50% 0.00 in
15:45 76.3 °F 57.9 °F 30.13 in SW 2.0 mph 7.0 mph 53% 0.00 in
15:50 76.5 °F 57.0 °F 30.13 in WNW 2.0 mph 6.0 mph 51% 0.00 in
15:55 76.6 °F 56.7 °F 30.13 in WNW 2.0 mph 3.0 mph 50% 0.00 in
16:00 76.5 °F 55.4 °F 30.13 in NNW 0.9 mph 4.0 mph 48% 0.00 in
16:05 76.3 °F 56.8 °F 30.13 in SW 2.9 mph 4.0 mph 51% 0.00 in
16:10 76.3 °F 57.4 °F 30.13 in WSW 2.0 mph 4.0 mph 52% 0.00 in
16:16 76.3 °F 55.8 °F 30.13 in Calm   2.0 mph 49% 0.00 in
16:21 76.5 °F 57.6 °F 30.13 in Calm   3.0 mph 52% 0.00 in
16:26 76.6 °F 58.3 °F 30.12 in South 2.9 mph 3.0 mph 53% 0.00 in
16:31 76.5 °F 58.6 °F 30.12 in NNW 2.0 mph 5.0 mph 54% 0.00 in
16:36 76.6 °F 56.1 °F 30.12 in SSW 2.9 mph 6.0 mph 49% 0.00 in
16:41 76.5 °F 55.4 °F 30.12 in SSW 0.9 mph 4.0 mph 48% 0.00 in
16:46 76.6 °F 54.9 °F 30.12 in SSW 2.0 mph 3.0 mph 47% 0.00 in
16:51 76.6 °F 57.2 °F 30.11 in SW 2.0 mph 4.0 mph 51% 0.00 in
16:56 77.0 °F 56.3 °F 30.11 in NW 0.9 mph 4.0 mph 49% 0.00 in
17:01 77.4 °F 56.7 °F 30.11 in NW 0.9 mph 2.0 mph 49% 0.00 in
17:06 77.2 °F 56.5 °F 30.12 in NNW 0.9 mph 2.0 mph 49% 0.00 in
17:11 77.4 °F 56.7 °F 30.11 in NW 2.0 mph 4.0 mph 49% 0.00 in
17:16 77.2 °F 55.4 °F 30.12 in Calm   4.0 mph 47% 0.00 in
17:21 76.8 °F 56.8 °F 30.12 in SW 2.9 mph 3.0 mph 50% 0.00 in
17:26 76.6 °F 56.7 °F 30.12 in SW 2.0 mph 4.0 mph 50% 0.00 in
17:31 75.9 °F 55.9 °F 30.12 in SW 0.9 mph 3.0 mph 50% 0.00 in
17:36 75.9 °F 57.0 °F 30.12 in SW 2.0 mph 5.0 mph 52% 0.00 in
17:41 75.9 °F 57.0 °F 30.12 in South 2.9 mph 4.0 mph 52% 0.00 in
17:46 75.9 °F 56.5 °F 30.12 in Calm   3.0 mph 51% 0.00 in
17:51 75.7 °F 56.3 °F 30.12 in SSW 2.0 mph 6.0 mph 51% 0.00 in
17:56 75.7 °F 55.8 °F 30.12 in SSW 2.0 mph 4.0 mph 50% 0.00 in
18:01 75.7 °F 55.2 °F 30.12 in Calm   2.0 mph 49% 0.00 in
18:06 75.7 °F 54.1 °F 30.11 in SSW 2.9 mph 3.0 mph 47% 0.00 in
18:11 75.7 °F 54.7 °F 30.11 in SSW 2.0 mph 2.0 mph 48% 0.00 in
18:16 75.6 °F 54.5 °F 30.11 in SSW 2.0 mph 2.0 mph 48% 0.00 in
18:21 75.4 °F 55.4 °F 30.11 in SSW 0.9 mph 3.0 mph 50% 0.00 in
18:26 75.0 °F 55.0 °F 30.11 in SSW 0.9 mph 2.0 mph 50% 0.00 in
18:31 74.8 °F 54.3 °F 30.11 in SSW 0.9 mph 3.0 mph 49% 0.00 in
18:36 74.5 °F 55.2 °F 30.11 in Calm   1.0 mph 51% 0.00 in
18:41 74.3 °F 55.6 °F 30.11 in Calm     52% 0.00 in
18:47 73.9 °F 54.1 °F 30.12 in Calm   2.0 mph 50% 0.00 in
18:52 73.9 °F 54.1 °F 30.12 in SSW 2.9 mph 3.0 mph 50% 0.00 in
18:57 73.9 °F 54.7 °F 30.12 in SSW 0.9 mph 3.0 mph 51% 0.00 in
19:02 73.9 °F 55.2 °F 30.12 in SSW 0.9 mph 2.0 mph 52% 0.00 in
19:07 73.8 °F 54.5 °F 30.12 in SSW 0.9 mph 1.0 mph 51% 0.00 in
19:12 73.6 °F 54.3 °F 30.12 in SSW 2.0 mph 2.0 mph 51% 0.00 in
19:17 73.4 °F 53.6 °F 30.12 in Calm   2.0 mph 50% 0.00 in
19:22 73.4 °F 54.1 °F 30.12 in Calm     51% 0.00 in
19:27 73.4 °F 54.7 °F 30.12 in SSW 2.0 mph 2.0 mph 52% 0.00 in
19:32 73.2 °F 54.5 °F 30.12 in Calm   1.0 mph 52% 0.00 in
19:37 73.2 °F 54.5 °F 30.12 in Calm     52% 0.00 in
19:42 73.0 °F 55.4 °F 30.12 in Calm   1.0 mph 54% 0.00 in
19:47 72.9 °F 55.8 °F 30.12 in Calm     55% 0.00 in
19:52 72.7 °F 56.1 °F 30.12 in Calm     56% 0.00 in
19:57 72.1 °F 56.1 °F 30.12 in Calm     57% 0.00 in
20:02 72.0 °F 56.3 °F 30.12 in Calm     58% 0.00 in
20:07 71.8 °F 56.7 °F 30.12 in Calm     59% 0.00 in
20:12 71.4 °F 56.8 °F 30.12 in Calm     60% 0.00 in
20:17 71.1 °F 56.5 °F 30.12 in Calm     60% 0.00 in
20:22 70.7 °F 56.7 °F 30.12 in Calm     61% 0.00 in
20:28 70.3 °F 56.7 °F 30.12 in Calm     62% 0.00 in
Atglen Borough, Pennsylvania, USA
Compliments of Weather Underground - 3.25 mb